Nearby METAR Reports

 

KOAK - Oakland, California, USA
Distance from station: SSW 6mi, 9km
Updated: Mon, 18-Nov-2019 4:53pm PST
Few Clouds
Few Clouds
 Wind from WNW
Wind: WNW 8 mph , 13 km/h
Temperature: 64°F , 18°C
Dew Point: 52°F , 11°C
Humidity: 64%
Barometer: 29.85 inHg , 1010.8 hPa
Clouds: Few Clouds
Visibility: 7 miles , 11 km
Cloud details: Few Clouds 8000 ft
Few Clouds 20000 ft
2019/11/19 00:53 KOAK 190053Z 30007KT 7SM FEW080 FEW200 18/11 A2985 RMK AO2 SLP108 T01780111
KHWD - Hayward, California, USA
Distance from station: SSE 8mi, 12km
Updated: Mon, 18-Nov-2019 4:54pm PST
Haze, Clear
Haze, Clear
 Wind from calm
Wind: Calm
Temperature: 66°F , 19°C
Dew Point: 52°F , 11°C
Humidity: 60%
Barometer: 29.84 inHg , 1010.5 hPa
Summary: Haze
Clouds: Clear
Visibility: 5 miles , 8 km
2019/11/19 00:54 KHWD 190054Z 00000KT 5SM HZ CLR 19/11 A2984 RMK AO2 SLP115 T01940111
KSFO - San Francisco, California, USA
Distance from station: SW 15mi, 25km
Updated: Mon, 18-Nov-2019 4:56pm PST
Few Clouds
Few Clouds
 Wind from WNW
Wind: WNW 16 mph , 26 km/h
Temperature: 64°F , 18°C
Dew Point: 50°F , 10°C
Humidity: 60%
Barometer: 29.85 inHg , 1010.8 hPa
Clouds: Few Clouds
Visibility: 8 miles , 13 km
Cloud details: Few Clouds 20000 ft
2019/11/19 00:56 KSFO 190056Z 29014KT 8SM FEW200 18/10 A2985 RMK AO2 SLP106 T01780100
 
KCCR - Concord, California, USA
Distance from station: NNE 17mi, 27km
Updated: Mon, 18-Nov-2019 4:53pm PST
Clear
Clear
 Wind from NW
Wind: NW 3 mph , 6 km/h
Temperature: 70°F , 21°C
Dew Point: 48°F , 9°C
Humidity: 46%
Barometer: 29.84 inHg , 1010.5 hPa
Clouds: Clear
Visibility: 8 miles , 13 km
2019/11/19 00:53 KCCR 190053Z 32003KT 8SM CLR 21/09 A2984 RMK AO2 RAB02E38 SLP092 P0000 T02060089
KSQL - San Carlos Airpo, California, USA
Distance from station: SSW 18mi, 29km
Updated: Mon, 18-Nov-2019 4:47pm PST
Haze, Few clouds
Haze, Few clouds
 Wind from calm
Wind: Calm
Temperature: 64°F , 18°C
Dew Point: 55°F , 13°C
Humidity: 73%
Barometer: 29.85 inHg , 1010.8 hPa
Summary: Haze
Clouds: Few Clouds
Visibility: 6 miles , 10 km
Cloud details: Few Clouds 12000 ft
2019/11/19 00:47 KSQL 190047Z 00000KT 6SM HZ FEW120 18/13 A2985 RMK LAST
KLVK - Livermore, California, USA
Distance from station: ESE 20mi, 31km
Updated: Mon, 18-Nov-2019 4:53pm PST
Clear
Clear
 Wind from NE
Wind: NE 6 mph , 9 km/h
Temperature: 68°F , 20°C
Dew Point: 46°F , 8°C
Humidity: 46%
Barometer: 29.85 inHg , 1010.8 hPa
Clouds: Clear
Visibility: 9 miles , 14 km
2019/11/19 00:53 KLVK 190053Z 05005KT 9SM CLR 20/08 A2985 RMK AO2 SLP104 T02000078
 
KPAO - Palo Alto, California, USA
Distance from station: S 21mi, 34km
Updated: Mon, 18-Nov-2019 4:47pm PST
Few Clouds
Few Clouds
 Wind from N
Wind: N 7 mph , 11 km/h
Temperature: 63°F , 17°C
Dew Point: 54°F , 12°C
Humidity: 73%
Barometer: 29.85 inHg , 1010.8 hPa
Clouds: Few Clouds
Visibility: 8 miles , 13 km
Cloud details: Few Clouds 12000 ft
2019/11/19 00:47 KPAO 190047Z 35006KT 8SM FEW120 17/12 A2985
KHAF - Half Moon Bay, California, USA
Distance from station: SW 25mi, 41km
Updated: Mon, 18-Nov-2019 4:55pm PST
Clear
Clear
 Wind from NNW
Wind: NNW 12 mph , 19 km/h
Temperature: 59°F , 15°C
Dew Point: 52°F , 11°C
Humidity: 77%
Barometer: 29.86 inHg , 1011.2 hPa
Clouds: Clear
Visibility: 9 miles , 14 km
2019/11/19 00:55 KHAF 190055Z AUTO 34010KT 9SM CLR 15/11 A2986 RMK AO2
KNUQ - Moffett Nas/Mtn, California, USA
Distance from station: SSE 26mi, 42km
Updated: Mon, 18-Nov-2019 4:56pm PST

 
Barometer: 29.85 inHg , 1010.8 hPa
2019/11/19 00:56 KNUQ 190056Z A2985 RMK AO2 SLP112 PWINO $
 
KAPC - Napa, California, USA
Distance from station: NNW 30mi, 49km
Updated: Mon, 18-Nov-2019 4:54pm PST
Clear
Clear
 Wind from calm
Wind: Calm
Temperature: 66°F , 19°C
Dew Point: 52°F , 11°C
Humidity: 60%
Barometer: 29.84 inHg , 1010.5 hPa
Clouds: Clear
Visibility: 10 miles , 16 km
2019/11/19 00:54 KAPC 190054Z 00000KT 10SM CLR 19/11 A2984 RMK AO2 SLP096 T01890106
KSJC - San Jose, California, USA
Distance from station: SSE 31mi, 50km
Updated: Mon, 18-Nov-2019 4:53pm PST
Few Clouds
Few Clouds
 Wind from NNW
Wind: NNW 7 mph , 11 km/h
Temperature: 66°F , 19°C
Dew Point: 43°F , 6°C
Humidity: 43%
Barometer: 29.84 inHg , 1010.5 hPa
Clouds: Few Clouds
Visibility: 10 miles , 16 km
Cloud details: Few Clouds 1500 ft
Few Clouds 7500 ft
2019/11/19 00:53 KSJC 190053Z 33006KT 10SM FEW015 FEW075 19/06 A2984 RMK AO2 SLP104 HZ FEW015 T01940061 $
KDVO - Novato/Gnoss Fld, California, USA
Distance from station: NW 34mi, 54km
Updated: Mon, 18-Nov-2019 5:15pm PST
Clear
Clear
 Wind from calm
Wind: Calm
Temperature: 63°F , 17°C
Dew Point: 48°F , 9°C
Humidity: 59%
Barometer: 29.85 inHg , 1010.8 hPa
Clouds: Clear
Visibility: 10 miles , 16 km
2019/11/19 01:15 KDVO 190115Z AUTO 00000KT 10SM CLR 17/09 A2985 RMK AO2
 
KRHV - San Jose/Reid, California, USA
Distance from station: SSE 37mi, 59km
Updated: Mon, 18-Nov-2019 4:50pm PST
Clear
Clear
 Wind from calm
Wind: Calm
Temperature: 70°F , 21°C
Dew Point: 46°F , 8°C
Humidity: 43%
Barometer: 29.84 inHg , 1010.5 hPa
Clouds: Clear
Visibility: 10 miles , 16 km
2019/11/19 00:50 KRHV 190050Z 00000KT 10SM SKC 21/08 A2984
KSUU - Travis Afb/Fairf, California, USA
Distance from station: NNE 37mi, 59km
Updated: Mon, 18-Nov-2019 4:58pm PST
Haze, Clear
Haze, Clear
 Wind from calm
Wind: Calm
Temperature: 72°F , 22°C
Dew Point: 48°F , 9°C
Humidity: 44%
Barometer: 29.84 inHg , 1010.5 hPa
Summary: Haze
Clouds: Clear
Visibility: 6 miles , 10 km
2019/11/19 00:58 KSUU 190058Z 00000KT 6SM HZ CLR 22/09 A2984 RMK AO2A SLP112 T02150087 $
KO69 - Petaluma, California, USA
Distance from station: NW 41mi, 66km
Updated: Mon, 18-Nov-2019 5:15pm PST
Clear
Clear
 Wind from NNW
Wind: NNW 5 mph , 7 km/h
Temperature: 66°F , 19°C
Dew Point: 50°F , 10°C
Humidity: 56%
Barometer: 29.87 inHg , 1011.5 hPa
Clouds: Clear
Visibility: 10 miles , 16 km
2019/11/19 01:15 KO69 190115Z AUTO 33004KT 10SM CLR 19/10 A2987 RMK A01
 
KVCB - Vacaville, California, USA
Distance from station: NNE 44mi, 71km
Updated: Mon, 18-Nov-2019 4:53pm PST
Clear
Clear
 Wind from SSE
Wind: SSE 3 mph , 6 km/h
Temperature: 70°F , 21°C
Dew Point: 48°F , 9°C
Humidity: 46%
Barometer: 29.85 inHg , 1010.8 hPa
Clouds: Clear
Visibility: 10 miles , 16 km
2019/11/19 00:53 KVCB 190053Z AUTO 16003KT 10SM CLR 21/09 A2985 RMK AO2 SLP106 T02110094